Flagstaff, AZ (86011)

3:13 PM MST on July 23, 2016 (GMT -0700)
Foxglenn | | Change Station

Elev 6801 ft 35.20 °N, 111.60 °W | Updated 2 minutes ago

Scattered Clouds
Scattered Clouds
90.4 °F
Feels Like 87 °F
N
1.6
Wind Variable Wind from SW
Gusts 1.6 mph

Today
High -- | Low -- °F
--% Chance of Precip.
Yesterday
High -- | Low -- °F
Precip. -- in
Pressure 29.92 in
Visibility 10.0 miles
Clouds Scattered Clouds 10000 ft
Heat Index 87 °F
Dew Point 48 °F
Humidity 24%
Rainfall 0.00 in
Snow Depth Not available.
5:29 AM 7:36 PM
Waning Gibbous, 82% visible
METAR KFLG 232157Z 21008KT 10SM SCT100 28/07 A3027 RMK AO2 SLP131 T02830067
Pressure 29.92 in
Visibility 10.0 miles
Clouds Scattered Clouds 10000 ft
Heat Index 87 °F
Dew Point 48 °F
Humidity 24%
Rainfall 0.00 in
Snow Depth Not available.
5:29 AM 7:36 PM
Waning Gibbous, 82% visible
METAR KFLG 232157Z 21008KT 10SM SCT100 28/07 A3027 RMK AO2 SLP131 T02830067

10-Day Weather Forecast

Almanac

Astronomy

Jul. 23, 2016 Rise Set
Actual Time
Civil Twilight
Nautical Twilight
Astronomical Twilight
Moon
Length of Visible Light
Length of Day
Tomorrow will be .
, % of the Moon is Illuminated

Today's Extremes

State Highs State Lows

Community

WunderPhotos

Upload Photos

1,926,940 photos uploaded!

WunderBlog® & News

Nearby

Air Quality

  Air Quality AQ Index Pollutant
Not available.

Snow Depth

Station Depth Elevation

Earthquake Activity

City Distance Mag. Time & Date
Minimum magnitude displayed is 2.5.

Coastal Water Temperatures

Place Temperature

Stations

Nearby Weather Stations

Station Location Temp. Windchill Dew Point Humidity Wind Precip. Elev Updated Type
                   

Watches & Warnings

There are currently no watches in effect.